sensor_id;sensor_type;location;lat;lon;timestamp;P1;durP1;ratioP1;P2;durP2;ratioP2
51792;SDS011;37850;53.178;6.376;2022-08-23T00:01:55;8.68;;;3.42;;
51792;SDS011;37850;53.178;6.376;2022-08-23T00:04:23;7.88;;;3.63;;
51792;SDS011;37850;53.178;6.376;2022-08-23T00:06:56;8.90;;;3.25;;
51792;SDS011;37850;53.178;6.376;2022-08-23T00:09:23;9.27;;;3.58;;
51792;SDS011;37850;53.178;6.376;2022-08-23T00:11:52;9.38;;;3.80;;
51792;SDS011;37850;53.178;6.376;2022-08-23T00:16:47;10.40;;;3.60;;
51792;SDS011;37850;53.178;6.376;2022-08-23T00:19:14;8.30;;;3.50;;
51792;SDS011;37850;53.178;6.376;2022-08-23T00:21:41;8.40;;;3.47;;
51792;SDS011;37850;53.178;6.376;2022-08-23T00:24:09;8.30;;;3.70;;
51792;SDS011;37850;53.178;6.376;2022-08-23T00:29:23;8.05;;;3.55;;
51792;SDS011;37850;53.178;6.376;2022-08-23T00:31:52;7.78;;;3.30;;
51792;SDS011;37850;53.178;6.376;2022-08-23T00:34:17;10.93;;;3.80;;
51792;SDS011;37850;53.178;6.376;2022-08-23T00:36:44;10.07;;;3.75;;
51792;SDS011;37850;53.178;6.376;2022-08-23T00:39:15;7.95;;;3.50;;
51792;SDS011;37850;53.178;6.376;2022-08-23T00:41:42;9.30;;;3.50;;
51792;SDS011;37850;53.178;6.376;2022-08-23T00:44:20;6.20;;;3.20;;
51792;SDS011;37850;53.178;6.376;2022-08-23T00:47:08;8.90;;;3.33;;
51792;SDS011;37850;53.178;6.376;2022-08-23T00:50:01;8.45;;;3.70;;
51792;SDS011;37850;53.178;6.376;2022-08-23T00:52:45;7.05;;;3.50;;
51792;SDS011;37850;53.178;6.376;2022-08-23T00:55:16;8.07;;;3.55;;
51792;SDS011;37850;53.178;6.376;2022-08-23T00:57:45;7.35;;;3.50;;
51792;SDS011;37850;53.178;6.376;2022-08-23T01:00:12;9.52;;;3.60;;
51792;SDS011;37850;53.178;6.376;2022-08-23T01:02:38;10.20;;;3.47;;
51792;SDS011;37850;53.178;6.376;2022-08-23T01:05:06;7.63;;;3.50;;
51792;SDS011;37850;53.178;6.376;2022-08-23T01:10:04;7.82;;;3.70;;
51792;SDS011;37850;53.178;6.376;2022-08-23T01:12:36;8.05;;;3.65;;
51792;SDS011;37850;53.178;6.376;2022-08-23T01:15:18;8.10;;;3.58;;
51792;SDS011;37850;53.178;6.376;2022-08-23T01:18:05;7.65;;;3.25;;
51792;SDS011;37850;53.178;6.376;2022-08-23T01:20:44;9.25;;;3.80;;
51792;SDS011;37850;53.178;6.376;2022-08-23T01:26:06;9.23;;;3.63;;
51792;SDS011;37850;53.178;6.376;2022-08-23T01:28:33;8.15;;;4.13;;
51792;SDS011;37850;53.178;6.376;2022-08-23T01:30:59;7.57;;;3.83;;
51792;SDS011;37850;53.178;6.376;2022-08-23T01:33:26;6.70;;;3.45;;
51792;SDS011;37850;53.178;6.376;2022-08-23T01:35:53;7.57;;;3.90;;
51792;SDS011;37850;53.178;6.376;2022-08-23T01:38:21;8.70;;;4.18;;
51792;SDS011;37850;53.178;6.376;2022-08-23T01:40:48;10.23;;;4.10;;
51792;SDS011;37850;53.178;6.376;2022-08-23T01:43:14;7.20;;;3.58;;
51792;SDS011;37850;53.178;6.376;2022-08-23T01:45:44;7.93;;;4.30;;
51792;SDS011;37850;53.178;6.376;2022-08-23T01:48:11;7.72;;;3.95;;
51792;SDS011;37850;53.178;6.376;2022-08-23T01:50:38;11.02;;;4.05;;
51792;SDS011;37850;53.178;6.376;2022-08-23T01:53:04;6.97;;;3.60;;
51792;SDS011;37850;53.178;6.376;2022-08-23T01:55:30;7.28;;;3.30;;
51792;SDS011;37850;53.178;6.376;2022-08-23T01:57:57;7.03;;;3.22;;
51792;SDS011;37850;53.178;6.376;2022-08-23T02:00:28;6.88;;;3.60;;
51792;SDS011;37850;53.178;6.376;2022-08-23T02:03:00;9.82;;;3.92;;
51792;SDS011;37850;53.178;6.376;2022-08-23T02:05:26;7.97;;;4.22;;
51792;SDS011;37850;53.178;6.376;2022-08-23T02:07:52;6.72;;;3.67;;
51792;SDS011;37850;53.178;6.376;2022-08-23T02:10:19;8.32;;;4.10;;
51792;SDS011;37850;53.178;6.376;2022-08-23T02:12:45;8.32;;;3.88;;
51792;SDS011;37850;53.178;6.376;2022-08-23T02:15:11;7.50;;;4.22;;
51792;SDS011;37850;53.178;6.376;2022-08-23T02:17:38;9.07;;;3.70;;
51792;SDS011;37850;53.178;6.376;2022-08-23T02:20:05;8.70;;;3.83;;
51792;SDS011;37850;53.178;6.376;2022-08-23T02:22:32;9.90;;;4.10;;
51792;SDS011;37850;53.178;6.376;2022-08-23T02:24:58;7.78;;;3.90;;
51792;SDS011;37850;53.178;6.376;2022-08-23T02:27:24;7.55;;;3.67;;
51792;SDS011;37850;53.178;6.376;2022-08-23T02:29:50;7.78;;;3.53;;
51792;SDS011;37850;53.178;6.376;2022-08-23T02:32:16;9.27;;;4.18;;
51792;SDS011;37850;53.178;6.376;2022-08-23T02:34:43;7.47;;;3.95;;
51792;SDS011;37850;53.178;6.376;2022-08-23T02:37:10;7.22;;;3.72;;
51792;SDS011;37850;53.178;6.376;2022-08-23T02:39:37;7.78;;;3.80;;
51792;SDS011;37850;53.178;6.376;2022-08-23T02:42:03;7.20;;;3.78;;
51792;SDS011;37850;53.178;6.376;2022-08-23T02:44:30;6.88;;;3.58;;
51792;SDS011;37850;53.178;6.376;2022-08-23T02:46:59;7.65;;;3.47;;
51792;SDS011;37850;53.178;6.376;2022-08-23T02:49:26;5.88;;;3.25;;
51792;SDS011;37850;53.178;6.376;2022-08-23T02:51:53;6.90;;;3.58;;
51792;SDS011;37850;53.178;6.376;2022-08-23T02:54:18;6.38;;;3.35;;
51792;SDS011;37850;53.178;6.376;2022-08-23T02:56:44;8.00;;;3.35;;
51792;SDS011;37850;53.178;6.376;2022-08-23T02:59:10;6.72;;;3.55;;
51792;SDS011;37850;53.178;6.376;2022-08-23T03:01:37;6.82;;;3.58;;
51792;SDS011;37850;53.178;6.376;2022-08-23T03:04:05;10.02;;;4.10;;
51792;SDS011;37850;53.178;6.376;2022-08-23T03:06:33;7.22;;;3.78;;
51792;SDS011;37850;53.178;6.376;2022-08-23T03:08:58;7.00;;;3.83;;
51792;SDS011;37850;53.178;6.376;2022-08-23T03:11:24;8.10;;;3.80;;
51792;SDS011;37850;53.178;6.376;2022-08-23T03:13:50;8.23;;;3.85;;
51792;SDS011;37850;53.178;6.376;2022-08-23T03:16:17;7.35;;;4.00;;
51792;SDS011;37850;53.178;6.376;2022-08-23T03:18:43;8.73;;;4.85;;
51792;SDS011;37850;53.178;6.376;2022-08-23T03:21:10;10.63;;;5.45;;
51792;SDS011;37850;53.178;6.376;2022-08-23T03:23:36;10.55;;;4.90;;
51792;SDS011;37850;53.178;6.376;2022-08-23T03:26:03;11.48;;;5.45;;
51792;SDS011;37850;53.178;6.376;2022-08-23T03:28:31;10.25;;;4.85;;
51792;SDS011;37850;53.178;6.376;2022-08-23T03:30:58;6.70;;;4.57;;
51792;SDS011;37850;53.178;6.376;2022-08-23T03:33:23;8.43;;;4.90;;
51792;SDS011;37850;53.178;6.376;2022-08-23T03:35:49;9.75;;;4.97;;
51792;SDS011;37850;53.178;6.376;2022-08-23T03:38:15;10.05;;;5.20;;
51792;SDS011;37850;53.178;6.376;2022-08-23T03:40:41;12.52;;;5.78;;
51792;SDS011;37850;53.178;6.376;2022-08-23T03:43:07;11.70;;;6.90;;
51792;SDS011;37850;53.178;6.376;2022-08-23T03:45:33;12.95;;;7.15;;
51792;SDS011;37850;53.178;6.376;2022-08-23T03:47:59;9.73;;;5.85;;
51792;SDS011;37850;53.178;6.376;2022-08-23T03:50:25;11.38;;;5.47;;
51792;SDS011;37850;53.178;6.376;2022-08-23T03:52:51;11.90;;;5.72;;
51792;SDS011;37850;53.178;6.376;2022-08-23T03:55:16;9.55;;;6.75;;
51792;SDS011;37850;53.178;6.376;2022-08-23T03:57:42;9.18;;;6.30;;
51792;SDS011;37850;53.178;6.376;2022-08-23T04:00:09;12.93;;;7.72;;
51792;SDS011;37850;53.178;6.376;2022-08-23T04:02:38;12.35;;;8.27;;
51792;SDS011;37850;53.178;6.376;2022-08-23T04:05:04;13.07;;;8.05;;
51792;SDS011;37850;53.178;6.376;2022-08-23T04:07:32;12.07;;;7.85;;
51792;SDS011;37850;53.178;6.376;2022-08-23T04:09:59;14.65;;;10.52;;
51792;SDS011;37850;53.178;6.376;2022-08-23T04:12:28;13.93;;;8.85;;
51792;SDS011;37850;53.178;6.376;2022-08-23T04:14:54;14.45;;;8.93;;
51792;SDS011;37850;53.178;6.376;2022-08-23T04:17:19;16.17;;;9.27;;
51792;SDS011;37850;53.178;6.376;2022-08-23T04:19:46;15.45;;;8.90;;
51792;SDS011;37850;53.178;6.376;2022-08-23T04:22:12;12.20;;;8.32;;
51792;SDS011;37850;53.178;6.376;2022-08-23T04:24:41;14.32;;;8.23;;
51792;SDS011;37850;53.178;6.376;2022-08-23T04:27:07;15.30;;;9.57;;
51792;SDS011;37850;53.178;6.376;2022-08-23T04:29:34;10.73;;;7.90;;
51792;SDS011;37850;53.178;6.376;2022-08-23T04:32:02;13.13;;;9.63;;
51792;SDS011;37850;53.178;6.376;2022-08-23T04:34:28;15.35;;;9.48;;
51792;SDS011;37850;53.178;6.376;2022-08-23T04:36:53;14.77;;;9.30;;
51792;SDS011;37850;53.178;6.376;2022-08-23T04:39:19;14.13;;;9.40;;
51792;SDS011;37850;53.178;6.376;2022-08-23T04:41:45;11.55;;;8.23;;
51792;SDS011;37850;53.178;6.376;2022-08-23T04:44:29;12.60;;;8.25;;
51792;SDS011;37850;53.178;6.376;2022-08-23T04:46:54;14.57;;;8.75;;
51792;SDS011;37850;53.178;6.376;2022-08-23T04:49:20;13.15;;;8.68;;
51792;SDS011;37850;53.178;6.376;2022-08-23T04:51:47;13.10;;;10.15;;
51792;SDS011;37850;53.178;6.376;2022-08-23T04:54:14;12.00;;;7.68;;
51792;SDS011;37850;53.178;6.376;2022-08-23T04:56:41;14.52;;;10.23;;
51792;SDS011;37850;53.178;6.376;2022-08-23T04:59:07;12.55;;;9.43;;
51792;SDS011;37850;53.178;6.376;2022-08-23T05:01:33;13.55;;;9.02;;
51792;SDS011;37850;53.178;6.376;2022-08-23T05:04:00;13.55;;;9.43;;
51792;SDS011;37850;53.178;6.376;2022-08-23T05:06:27;14.65;;;10.15;;
51792;SDS011;37850;53.178;6.376;2022-08-23T05:08:53;14.07;;;9.35;;
51792;SDS011;37850;53.178;6.376;2022-08-23T05:11:19;14.75;;;9.82;;
51792;SDS011;37850;53.178;6.376;2022-08-23T05:13:45;15.10;;;10.38;;
51792;SDS011;37850;53.178;6.376;2022-08-23T05:16:11;12.52;;;9.77;;
51792;SDS011;37850;53.178;6.376;2022-08-23T05:18:38;12.77;;;9.63;;
51792;SDS011;37850;53.178;6.376;2022-08-23T05:21:04;15.80;;;11.90;;
51792;SDS011;37850;53.178;6.376;2022-08-23T05:23:30;21.35;;;13.32;;
51792;SDS011;37850;53.178;6.376;2022-08-23T05:25:56;20.05;;;12.70;;
51792;SDS011;37850;53.178;6.376;2022-08-23T05:28:27;13.48;;;10.48;;
51792;SDS011;37850;53.178;6.376;2022-08-23T05:30:59;16.10;;;11.18;;
51792;SDS011;37850;53.178;6.376;2022-08-23T05:33:27;16.42;;;10.82;;
51792;SDS011;37850;53.178;6.376;2022-08-23T05:35:55;14.35;;;10.65;;
51792;SDS011;37850;53.178;6.376;2022-08-23T05:38:20;19.83;;;12.50;;
51792;SDS011;37850;53.178;6.376;2022-08-23T05:40:48;16.10;;;10.30;;
51792;SDS011;37850;53.178;6.376;2022-08-23T05:43:15;18.50;;;11.20;;
51792;SDS011;37850;53.178;6.376;2022-08-23T05:45:42;18.73;;;12.10;;
51792;SDS011;37850;53.178;6.376;2022-08-23T05:48:07;19.80;;;13.20;;
51792;SDS011;37850;53.178;6.376;2022-08-23T05:50:35;17.08;;;11.45;;
51792;SDS011;37850;53.178;6.376;2022-08-23T05:53:02;19.63;;;14.07;;
51792;SDS011;37850;53.178;6.376;2022-08-23T05:55:28;14.80;;;11.93;;
51792;SDS011;37850;53.178;6.376;2022-08-23T05:57:54;17.75;;;13.23;;
51792;SDS011;37850;53.178;6.376;2022-08-23T06:00:20;16.95;;;12.55;;
51792;SDS011;37850;53.178;6.376;2022-08-23T06:02:47;19.05;;;12.93;;
51792;SDS011;37850;53.178;6.376;2022-08-23T06:05:13;17.70;;;12.00;;
51792;SDS011;37850;53.178;6.376;2022-08-23T06:07:40;16.40;;;12.38;;
51792;SDS011;37850;53.178;6.376;2022-08-23T06:10:06;15.82;;;12.60;;
51792;SDS011;37850;53.178;6.376;2022-08-23T06:12:33;18.35;;;14.25;;
51792;SDS011;37850;53.178;6.376;2022-08-23T06:15:00;18.48;;;14.40;;
51792;SDS011;37850;53.178;6.376;2022-08-23T06:17:26;18.35;;;13.35;;
51792;SDS011;37850;53.178;6.376;2022-08-23T06:19:52;18.25;;;14.32;;
51792;SDS011;37850;53.178;6.376;2022-08-23T06:22:19;17.55;;;13.95;;
51792;SDS011;37850;53.178;6.376;2022-08-23T06:24:44;18.17;;;12.93;;
51792;SDS011;37850;53.178;6.376;2022-08-23T06:27:11;18.85;;;14.23;;
51792;SDS011;37850;53.178;6.376;2022-08-23T06:29:37;20.42;;;15.15;;
51792;SDS011;37850;53.178;6.376;2022-08-23T06:32:03;18.75;;;13.55;;
51792;SDS011;37850;53.178;6.376;2022-08-23T06:34:30;18.60;;;13.55;;
51792;SDS011;37850;53.178;6.376;2022-08-23T06:37:00;17.30;;;13.52;;
51792;SDS011;37850;53.178;6.376;2022-08-23T06:39:27;17.80;;;13.07;;
51792;SDS011;37850;53.178;6.376;2022-08-23T06:41:59;15.20;;;12.90;;
51792;SDS011;37850;53.178;6.376;2022-08-23T06:44:36;17.88;;;14.50;;
51792;SDS011;37850;53.178;6.376;2022-08-23T06:47:03;17.50;;;13.25;;
51792;SDS011;37850;53.178;6.376;2022-08-23T06:49:29;15.55;;;13.30;;
51792;SDS011;37850;53.178;6.376;2022-08-23T06:51:58;15.63;;;13.02;;
51792;SDS011;37850;53.178;6.376;2022-08-23T06:54:29;17.63;;;13.25;;
51792;SDS011;37850;53.178;6.376;2022-08-23T06:56:58;17.98;;;13.90;;
51792;SDS011;37850;53.178;6.376;2022-08-23T06:59:24;17.73;;;12.88;;
51792;SDS011;37850;53.178;6.376;2022-08-23T07:01:55;18.67;;;12.82;;
51792;SDS011;37850;53.178;6.376;2022-08-23T07:04:33;14.93;;;12.43;;
51792;SDS011;37850;53.178;6.376;2022-08-23T07:07:02;16.55;;;11.63;;
51792;SDS011;37850;53.178;6.376;2022-08-23T07:09:29;17.80;;;11.13;;
51792;SDS011;37850;53.178;6.376;2022-08-23T07:11:56;17.92;;;11.63;;
51792;SDS011;37850;53.178;6.376;2022-08-23T07:14:23;15.70;;;11.35;;
51792;SDS011;37850;53.178;6.376;2022-08-23T07:16:53;13.98;;;9.98;;
51792;SDS011;37850;53.178;6.376;2022-08-23T07:19:24;17.48;;;10.45;;
51792;SDS011;37850;53.178;6.376;2022-08-23T07:21:51;12.63;;;9.20;;
51792;SDS011;37850;53.178;6.376;2022-08-23T07:24:18;15.70;;;9.65;;
51792;SDS011;37850;53.178;6.376;2022-08-23T07:26:47;15.65;;;8.52;;
51792;SDS011;37850;53.178;6.376;2022-08-23T07:29:14;14.10;;;8.02;;
51792;SDS011;37850;53.178;6.376;2022-08-23T07:31:42;13.93;;;8.45;;
51792;SDS011;37850;53.178;6.376;2022-08-23T07:34:10;10.60;;;7.70;;
51792;SDS011;37850;53.178;6.376;2022-08-23T07:36:38;11.60;;;7.03;;
51792;SDS011;37850;53.178;6.376;2022-08-23T07:39:05;13.57;;;8.35;;
51792;SDS011;37850;53.178;6.376;2022-08-23T07:41:31;13.88;;;8.18;;
51792;SDS011;37850;53.178;6.376;2022-08-23T07:43:59;11.30;;;7.30;;
51792;SDS011;37850;53.178;6.376;2022-08-23T07:46:26;14.57;;;7.60;;
51792;SDS011;37850;53.178;6.376;2022-08-23T07:48:55;12.38;;;7.38;;
51792;SDS011;37850;53.178;6.376;2022-08-23T07:51:22;12.27;;;6.60;;
51792;SDS011;37850;53.178;6.376;2022-08-23T07:53:49;13.35;;;6.72;;
51792;SDS011;37850;53.178;6.376;2022-08-23T07:56:16;12.00;;;6.47;;
51792;SDS011;37850;53.178;6.376;2022-08-23T07:58:42;11.38;;;6.97;;
51792;SDS011;37850;53.178;6.376;2022-08-23T08:01:09;12.30;;;6.00;;
51792;SDS011;37850;53.178;6.376;2022-08-23T08:03:40;10.25;;;5.45;;
51792;SDS011;37850;53.178;6.376;2022-08-23T08:06:11;11.45;;;5.68;;
51792;SDS011;37850;53.178;6.376;2022-08-23T08:08:43;10.63;;;5.72;;
51792;SDS011;37850;53.178;6.376;2022-08-23T08:11:09;11.18;;;5.35;;
51792;SDS011;37850;53.178;6.376;2022-08-23T08:13:37;9.63;;;4.70;;
51792;SDS011;37850;53.178;6.376;2022-08-23T08:16:04;8.30;;;4.47;;
51792;SDS011;37850;53.178;6.376;2022-08-23T08:18:31;10.32;;;4.72;;
51792;SDS011;37850;53.178;6.376;2022-08-23T08:20:57;11.00;;;4.38;;
51792;SDS011;37850;53.178;6.376;2022-08-23T08:23:23;6.53;;;3.42;;
51792;SDS011;37850;53.178;6.376;2022-08-23T08:25:48;7.57;;;3.60;;
51792;SDS011;37850;53.178;6.376;2022-08-23T08:28:25;9.90;;;3.58;;
51792;SDS011;37850;53.178;6.376;2022-08-23T08:30:51;9.13;;;3.17;;
51792;SDS011;37850;53.178;6.376;2022-08-23T08:33:17;7.63;;;3.15;;
51792;SDS011;37850;53.178;6.376;2022-08-23T08:35:46;7.93;;;3.08;;
51792;SDS011;37850;53.178;6.376;2022-08-23T08:38:13;8.82;;;3.65;;
51792;SDS011;37850;53.178;6.376;2022-08-23T08:40:39;6.78;;;2.85;;
51792;SDS011;37850;53.178;6.376;2022-08-23T08:45:34;7.70;;;2.65;;
51792;SDS011;37850;53.178;6.376;2022-08-23T08:48:13;7.05;;;2.70;;
51792;SDS011;37850;53.178;6.376;2022-08-23T08:50:45;7.20;;;2.78;;
51792;SDS011;37850;53.178;6.376;2022-08-23T08:53:21;7.72;;;2.42;;
51792;SDS011;37850;53.178;6.376;2022-08-23T08:55:55;7.82;;;2.88;;
51792;SDS011;37850;53.178;6.376;2022-08-23T08:58:32;8.13;;;2.70;;
51792;SDS011;37850;53.178;6.376;2022-08-23T09:01:19;7.53;;;2.40;;
51792;SDS011;37850;53.178;6.376;2022-08-23T09:03:45;10.80;;;2.60;;
51792;SDS011;37850;53.178;6.376;2022-08-23T09:06:20;6.60;;;2.42;;
51792;SDS011;37850;53.178;6.376;2022-08-23T09:17:26;6.78;;;2.40;;
51792;SDS011;37850;53.178;6.376;2022-08-23T09:19:55;6.80;;;2.63;;
51792;SDS011;37850;53.178;6.376;2022-08-23T09:22:29;7.38;;;2.72;;
51792;SDS011;37850;53.178;6.376;2022-08-23T09:25:03;6.45;;;2.53;;
51792;SDS011;37850;53.178;6.376;2022-08-23T09:27:32;7.13;;;2.30;;
51792;SDS011;37850;53.178;6.376;2022-08-23T09:29:58;5.78;;;2.38;;
51792;SDS011;37850;53.178;6.376;2022-08-23T09:32:27;6.55;;;2.65;;
51792;SDS011;37850;53.178;6.376;2022-08-23T09:37:58;7.68;;;2.80;;
51792;SDS011;37850;53.178;6.376;2022-08-23T09:40:33;4.60;;;2.20;;
51792;SDS011;37850;53.178;6.376;2022-08-23T09:43:12;10.73;;;3.83;;
51792;SDS011;37850;53.178;6.376;2022-08-23T09:45:40;7.03;;;2.42;;
51792;SDS011;37850;53.178;6.376;2022-08-23T09:48:32;9.82;;;2.75;;
51792;SDS011;37850;53.178;6.376;2022-08-23T09:51:17;6.05;;;2.38;;
51792;SDS011;37850;53.178;6.376;2022-08-23T09:56:54;7.38;;;2.50;;
51792;SDS011;37850;53.178;6.376;2022-08-23T10:01:52;7.07;;;2.60;;
51792;SDS011;37850;53.178;6.376;2022-08-23T10:04:29;6.90;;;2.75;;
51792;SDS011;37850;53.178;6.376;2022-08-23T10:07:28;6.47;;;2.67;;
51792;SDS011;37850;53.178;6.376;2022-08-23T10:10:00;7.05;;;2.80;;
51792;SDS011;37850;53.178;6.376;2022-08-23T10:12:37;9.20;;;2.90;;
51792;SDS011;37850;53.178;6.376;2022-08-23T10:15:03;8.35;;;2.30;;
51792;SDS011;37850;53.178;6.376;2022-08-23T10:17:31;6.82;;;2.65;;
51792;SDS011;37850;53.178;6.376;2022-08-23T10:25:53;5.28;;;2.17;;
51792;SDS011;37850;53.178;6.376;2022-08-23T10:31:42;11.82;;;2.92;;
51792;SDS011;37850;53.178;6.376;2022-08-23T10:45:37;6.22;;;2.25;;
51792;SDS011;37850;53.178;6.376;2022-08-23T10:48:28;7.97;;;2.60;;
51792;SDS011;37850;53.178;6.376;2022-08-23T10:51:23;6.78;;;2.10;;
51792;SDS011;37850;53.178;6.376;2022-08-23T10:54:15;7.55;;;2.08;;
51792;SDS011;37850;53.178;6.376;2022-08-23T10:56:43;9.27;;;2.75;;
51792;SDS011;37850;53.178;6.376;2022-08-23T10:59:12;7.05;;;2.33;;
51792;SDS011;37850;53.178;6.376;2022-08-23T11:02:03;7.47;;;2.33;;
51792;SDS011;37850;53.178;6.376;2022-08-23T11:05:01;6.72;;;2.55;;
51792;SDS011;37850;53.178;6.376;2022-08-23T11:07:36;9.15;;;2.70;;
51792;SDS011;37850;53.178;6.376;2022-08-23T11:10:15;6.88;;;2.20;;
51792;SDS011;37850;53.178;6.376;2022-08-23T11:18:08;5.05;;;1.75;;
51792;SDS011;37850;53.178;6.376;2022-08-23T11:26:09;8.32;;;2.10;;
51792;SDS011;37850;53.178;6.376;2022-08-23T11:31:36;5.95;;;1.92;;
51792;SDS011;37850;53.178;6.376;2022-08-23T11:34:22;8.30;;;2.40;;
51792;SDS011;37850;53.178;6.376;2022-08-23T11:42:21;7.30;;;1.90;;
51792;SDS011;37850;53.178;6.376;2022-08-23T11:48:14;4.72;;;1.85;;
51792;SDS011;37850;53.178;6.376;2022-08-23T12:01:56;7.53;;;1.77;;
51792;SDS011;37850;53.178;6.376;2022-08-23T12:07:05;7.93;;;2.10;;
51792;SDS011;37850;53.178;6.376;2022-08-23T12:12:25;7.53;;;1.90;;
51792;SDS011;37850;53.178;6.376;2022-08-23T12:15:12;7.45;;;2.10;;
51792;SDS011;37850;53.178;6.376;2022-08-23T12:20:10;6.07;;;2.10;;
51792;SDS011;37850;53.178;6.376;2022-08-23T12:25:32;6.18;;;1.90;;
51792;SDS011;37850;53.178;6.376;2022-08-23T12:28:02;6.53;;;2.25;;
51792;SDS011;37850;53.178;6.376;2022-08-23T12:30:39;7.00;;;2.00;;
51792;SDS011;37850;53.178;6.376;2022-08-23T12:36:12;6.35;;;2.30;;
51792;SDS011;37850;53.178;6.376;2022-08-23T12:41:34;6.82;;;2.42;;
51792;SDS011;37850;53.178;6.376;2022-08-23T12:44:25;8.43;;;1.90;;
51792;SDS011;37850;53.178;6.376;2022-08-23T12:46:52;6.80;;;2.45;;
51792;SDS011;37850;53.178;6.376;2022-08-23T12:49:23;5.50;;;2.13;;
51792;SDS011;37850;53.178;6.376;2022-08-23T12:51:51;6.75;;;2.22;;
51792;SDS011;37850;53.178;6.376;2022-08-23T12:54:31;11.00;;;2.53;;
51792;SDS011;37850;53.178;6.376;2022-08-23T12:57:13;5.63;;;2.05;;
51792;SDS011;37850;53.178;6.376;2022-08-23T12:59:56;8.00;;;2.15;;
51792;SDS011;37850;53.178;6.376;2022-08-23T13:02:32;7.95;;;2.10;;
51792;SDS011;37850;53.178;6.376;2022-08-23T13:07:58;7.85;;;2.10;;
51792;SDS011;37850;53.178;6.376;2022-08-23T13:10:26;6.50;;;2.22;;
51792;SDS011;37850;53.178;6.376;2022-08-23T13:12:53;9.68;;;2.70;;
51792;SDS011;37850;53.178;6.376;2022-08-23T13:15:38;8.43;;;2.20;;
51792;SDS011;37850;53.178;6.376;2022-08-23T13:18:06;7.03;;;2.20;;
51792;SDS011;37850;53.178;6.376;2022-08-23T13:20:33;6.80;;;2.20;;
51792;SDS011;37850;53.178;6.376;2022-08-23T13:23:01;9.10;;;2.40;;
51792;SDS011;37850;53.178;6.376;2022-08-23T13:25:35;7.93;;;2.38;;
51792;SDS011;37850;53.178;6.376;2022-08-23T13:28:05;7.38;;;1.80;;
51792;SDS011;37850;53.178;6.376;2022-08-23T13:30:59;10.45;;;2.50;;
51792;SDS011;37850;53.178;6.376;2022-08-23T13:33:30;6.88;;;2.42;;
51792;SDS011;37850;53.178;6.376;2022-08-23T13:36:12;10.15;;;3.15;;
51792;SDS011;37850;53.178;6.376;2022-08-23T13:38:43;10.23;;;2.78;;
51792;SDS011;37850;53.178;6.376;2022-08-23T13:41:10;7.22;;;2.20;;
51792;SDS011;37850;53.178;6.376;2022-08-23T13:43:55;9.18;;;2.22;;
51792;SDS011;37850;53.178;6.376;2022-08-23T13:46:25;5.40;;;2.28;;
51792;SDS011;37850;53.178;6.376;2022-08-23T13:51:34;7.70;;;2.17;;
51792;SDS011;37850;53.178;6.376;2022-08-23T13:54:08;7.10;;;2.33;;
51792;SDS011;37850;53.178;6.376;2022-08-23T13:56:49;5.25;;;1.92;;
51792;SDS011;37850;53.178;6.376;2022-08-23T13:59:21;8.52;;;2.40;;
51792;SDS011;37850;53.178;6.376;2022-08-23T14:01:53;5.68;;;2.58;;
51792;SDS011;37850;53.178;6.376;2022-08-23T14:04:20;7.43;;;2.58;;
51792;SDS011;37850;53.178;6.376;2022-08-23T14:06:48;7.15;;;2.30;;
51792;SDS011;37850;53.178;6.376;2022-08-23T14:09:14;7.05;;;2.40;;
51792;SDS011;37850;53.178;6.376;2022-08-23T14:11:40;6.55;;;2.08;;
51792;SDS011;37850;53.178;6.376;2022-08-23T14:14:06;5.82;;;1.90;;
51792;SDS011;37850;53.178;6.376;2022-08-23T14:16:34;6.53;;;2.55;;
51792;SDS011;37850;53.178;6.376;2022-08-23T14:19:05;5.95;;;2.58;;
51792;SDS011;37850;53.178;6.376;2022-08-23T14:21:32;9.18;;;2.67;;
51792;SDS011;37850;53.178;6.376;2022-08-23T14:23:58;10.20;;;2.35;;
51792;SDS011;37850;53.178;6.376;2022-08-23T14:26:24;8.55;;;2.40;;
51792;SDS011;37850;53.178;6.376;2022-08-23T14:28:51;6.97;;;2.03;;
51792;SDS011;37850;53.178;6.376;2022-08-23T14:31:16;8.98;;;2.50;;
51792;SDS011;37850;53.178;6.376;2022-08-23T14:33:45;8.13;;;2.33;;
51792;SDS011;37850;53.178;6.376;2022-08-23T14:36:12;6.25;;;2.20;;
51792;SDS011;37850;53.178;6.376;2022-08-23T14:38:38;6.53;;;2.50;;
51792;SDS011;37850;53.178;6.376;2022-08-23T14:41:16;7.80;;;2.47;;
51792;SDS011;37850;53.178;6.376;2022-08-23T14:43:45;6.20;;;2.22;;
51792;SDS011;37850;53.178;6.376;2022-08-23T14:46:13;9.02;;;2.28;;
51792;SDS011;37850;53.178;6.376;2022-08-23T14:48:39;8.80;;;2.42;;
51792;SDS011;37850;53.178;6.376;2022-08-23T14:51:04;8.70;;;2.53;;
51792;SDS011;37850;53.178;6.376;2022-08-23T14:53:36;9.77;;;2.90;;
51792;SDS011;37850;53.178;6.376;2022-08-23T14:56:02;6.97;;;2.40;;
51792;SDS011;37850;53.178;6.376;2022-08-23T14:58:28;7.55;;;2.55;;
51792;SDS011;37850;53.178;6.376;2022-08-23T15:00:53;8.75;;;2.28;;
51792;SDS011;37850;53.178;6.376;2022-08-23T15:03:24;5.95;;;2.47;;
51792;SDS011;37850;53.178;6.376;2022-08-23T15:05:51;8.07;;;2.20;;
51792;SDS011;37850;53.178;6.376;2022-08-23T15:08:18;6.78;;;2.30;;
51792;SDS011;37850;53.178;6.376;2022-08-23T15:10:44;5.75;;;2.47;;
51792;SDS011;37850;53.178;6.376;2022-08-23T15:13:10;7.43;;;3.03;;
51792;SDS011;37850;53.178;6.376;2022-08-23T15:15:36;10.00;;;2.83;;
51792;SDS011;37850;53.178;6.376;2022-08-23T15:18:05;13.98;;;3.08;;
51792;SDS011;37850;53.178;6.376;2022-08-23T15:20:34;5.90;;;2.40;;
51792;SDS011;37850;53.178;6.376;2022-08-23T15:23:03;7.28;;;2.28;;
51792;SDS011;37850;53.178;6.376;2022-08-23T15:25:30;6.22;;;2.47;;
51792;SDS011;37850;53.178;6.376;2022-08-23T15:27:59;7.65;;;2.80;;
51792;SDS011;37850;53.178;6.376;2022-08-23T15:30:26;7.60;;;2.83;;
51792;SDS011;37850;53.178;6.376;2022-08-23T15:32:54;10.05;;;2.60;;
51792;SDS011;37850;53.178;6.376;2022-08-23T15:35:20;7.80;;;2.72;;
51792;SDS011;37850;53.178;6.376;2022-08-23T15:37:46;7.25;;;2.75;;
51792;SDS011;37850;53.178;6.376;2022-08-23T15:40:12;10.85;;;2.88;;
51792;SDS011;37850;53.178;6.376;2022-08-23T15:42:38;10.55;;;3.03;;
51792;SDS011;37850;53.178;6.376;2022-08-23T15:45:04;7.68;;;2.80;;
51792;SDS011;37850;53.178;6.376;2022-08-23T15:47:33;6.80;;;2.88;;
51792;SDS011;37850;53.178;6.376;2022-08-23T15:50:06;9.30;;;2.88;;
51792;SDS011;37850;53.178;6.376;2022-08-23T15:52:32;8.10;;;3.35;;
51792;SDS011;37850;53.178;6.376;2022-08-23T15:54:58;10.07;;;3.65;;
51792;SDS011;37850;53.178;6.376;2022-08-23T15:57:24;7.65;;;3.53;;
51792;SDS011;37850;53.178;6.376;2022-08-23T15:59:54;9.18;;;2.92;;
51792;SDS011;37850;53.178;6.376;2022-08-23T16:02:21;10.32;;;2.92;;
51792;SDS011;37850;53.178;6.376;2022-08-23T16:04:47;9.55;;;2.95;;
51792;SDS011;37850;53.178;6.376;2022-08-23T16:07:13;11.60;;;3.72;;
51792;SDS011;37850;53.178;6.376;2022-08-23T16:09:41;10.18;;;3.65;;
51792;SDS011;37850;53.178;6.376;2022-08-23T16:12:07;9.23;;;3.95;;
51792;SDS011;37850;53.178;6.376;2022-08-23T16:14:33;11.18;;;4.30;;
51792;SDS011;37850;53.178;6.376;2022-08-23T16:17:00;12.75;;;4.88;;
51792;SDS011;37850;53.178;6.376;2022-08-23T16:19:27;10.77;;;5.00;;
51792;SDS011;37850;53.178;6.376;2022-08-23T16:21:53;11.32;;;5.30;;
51792;SDS011;37850;53.178;6.376;2022-08-23T16:24:19;10.63;;;4.28;;
51792;SDS011;37850;53.178;6.376;2022-08-23T16:26:46;10.25;;;4.53;;
51792;SDS011;37850;53.178;6.376;2022-08-23T16:29:14;9.75;;;6.03;;
51792;SDS011;37850;53.178;6.376;2022-08-23T16:31:41;10.80;;;6.88;;
51792;SDS011;37850;53.178;6.376;2022-08-23T16:34:09;11.70;;;7.47;;
51792;SDS011;37850;53.178;6.376;2022-08-23T16:36:38;14.77;;;7.20;;
51792;SDS011;37850;53.178;6.376;2022-08-23T16:39:05;12.20;;;7.63;;
51792;SDS011;37850;53.178;6.376;2022-08-23T16:41:31;11.70;;;7.65;;